createdAt,value
2017-12-19T00:00:26.606Z,63.70
2017-12-19T00:02:57.324Z,71.50
2017-12-19T00:05:28.060Z,70.37
2017-12-19T00:07:58.752Z,58.67
2017-12-19T00:10:29.441Z,66.47
2017-12-19T00:13:00.135Z,57.93
2017-12-19T00:15:30.811Z,62.73
2017-12-19T00:18:01.516Z,54.93
2017-12-19T00:20:32.233Z,60.70
2017-12-19T00:23:02.948Z,52.83
2017-12-19T00:25:33.644Z,55.77
2017-12-19T00:28:04.361Z,56.20
2017-12-19T00:30:35.120Z,55.47
2017-12-19T00:33:05.808Z,50.80
2017-12-19T00:35:36.533Z,63.93
2017-12-19T00:38:07.228Z,59.87
2017-12-19T00:40:37.930Z,67.97
2017-12-19T00:43:08.618Z,57.13
2017-12-19T00:45:39.313Z,53.83
2017-12-19T00:48:09.976Z,50.93
2017-12-19T00:50:40.692Z,68.10
2017-12-19T00:53:11.392Z,68.53
2017-12-19T00:55:42.121Z,70.67
2017-12-19T00:58:12.845Z,66.07
2017-12-19T01:00:43.533Z,76.13
2017-12-19T01:03:14.231Z,60.53
2017-12-19T01:05:44.922Z,55.93
2017-12-19T01:08:15.675Z,58.57
2017-12-19T01:10:46.376Z,60.10
2017-12-19T01:13:17.032Z,57.40
2017-12-19T01:15:47.741Z,68.60
2017-12-19T01:18:18.404Z,80.00
2017-12-19T01:20:49.128Z,71.50
2017-12-19T01:23:19.829Z,64.20
2017-12-19T01:25:50.560Z,60.00
2017-12-19T01:28:21.252Z,59.70
2017-12-19T01:30:51.951Z,61.20
2017-12-19T01:33:22.648Z,57.67
2017-12-19T01:35:53.385Z,61.23
2017-12-19T01:38:24.112Z,54.53
2017-12-19T01:40:54.783Z,58.40
2017-12-19T01:43:25.472Z,60.03
2017-12-19T01:45:56.153Z,60.63
2017-12-19T01:48:26.884Z,57.90
2017-12-19T01:50:57.551Z,57.17
2017-12-19T01:53:28.307Z,55.00
2017-12-19T01:55:59.010Z,57.77
2017-12-19T01:58:29.728Z,61.90
2017-12-19T02:01:00.426Z,55.57
2017-12-19T02:03:31.142Z,65.00
2017-12-19T02:06:01.876Z,68.37
2017-12-19T02:08:32.572Z,70.93
2017-12-19T02:11:03.265Z,64.93
2017-12-19T02:13:33.940Z,70.30
2017-12-19T02:16:04.655Z,76.47
2017-12-19T02:18:35.362Z,71.53
2017-12-19T02:21:06.081Z,64.13
2017-12-19T02:23:36.793Z,70.33
2017-12-19T02:26:07.492Z,66.30
2017-12-19T02:28:38.172Z,70.33
2017-12-19T02:31:08.860Z,58.47
2017-12-19T02:33:39.553Z,67.20
2017-12-19T02:36:10.244Z,63.10
2017-12-19T02:38:40.927Z,70.33
2017-12-19T02:41:11.584Z,95.87
2017-12-19T02:43:42.284Z,80.27
2017-12-19T02:46:12.962Z,69.23
2017-12-19T02:48:43.694Z,66.57
2017-12-19T02:51:14.373Z,75.73
2017-12-19T02:53:45.023Z,80.03
2017-12-19T02:56:15.708Z,80.80
2017-12-19T02:58:46.397Z,69.13
2017-12-19T03:01:17.139Z,73.73
2017-12-19T03:03:47.812Z,79.43
2017-12-19T03:06:18.485Z,61.97
2017-12-19T03:08:49.199Z,71.83
2017-12-19T03:11:19.902Z,62.43
2017-12-19T03:13:50.608Z,63.60
2017-12-19T03:16:21.276Z,65.93
2017-12-19T03:18:51.996Z,67.30
2017-12-19T03:21:22.682Z,66.77
2017-12-19T03:23:53.368Z,62.43
2017-12-19T03:26:24.052Z,63.77
2017-12-19T03:28:54.764Z,69.37
2017-12-19T03:31:25.448Z,65.53
2017-12-19T03:33:56.166Z,71.83
2017-12-19T03:36:26.863Z,62.90
2017-12-19T03:38:57.579Z,69.30
2017-12-19T03:41:28.228Z,66.90
2017-12-19T03:43:58.984Z,67.40
2017-12-19T03:46:29.713Z,65.73
2017-12-19T03:49:00.420Z,71.63
2017-12-19T03:51:31.140Z,65.80
2017-12-19T03:54:01.825Z,65.57
2017-12-19T03:56:32.497Z,72.20
2017-12-19T03:59:03.217Z,60.33
2017-12-19T04:01:33.903Z,59.37
2017-12-19T04:04:04.624Z,65.90
2017-12-19T04:06:35.364Z,59.47
2017-12-19T04:09:06.052Z,60.70
2017-12-19T04:11:36.783Z,63.57
2017-12-19T04:14:07.484Z,58.10
2017-12-19T04:16:38.173Z,58.50
2017-12-19T04:19:08.869Z,62.43
2017-12-19T04:21:39.545Z,63.63
2017-12-19T04:24:10.301Z,53.37
2017-12-19T04:26:40.953Z,66.07
2017-12-19T04:29:11.632Z,60.20
2017-12-19T04:31:42.351Z,54.70
2017-12-19T04:34:13.094Z,56.33
2017-12-19T04:36:43.760Z,51.83
2017-12-19T04:39:14.425Z,49.40
2017-12-19T04:41:45.112Z,60.07
2017-12-19T04:44:15.890Z,54.73
2017-12-19T04:46:46.603Z,51.13
2017-12-19T04:49:17.309Z,51.87
2017-12-19T04:51:47.973Z,57.67
2017-12-19T04:54:18.673Z,63.77
2017-12-19T04:56:49.385Z,55.33
2017-12-19T04:59:20.064Z,55.77
2017-12-19T05:01:50.749Z,55.77
2017-12-19T05:04:21.451Z,60.03
2017-12-19T05:06:52.206Z,55.87
2017-12-19T05:09:22.907Z,62.17
2017-12-19T05:11:53.601Z,65.87
2017-12-19T05:14:24.309Z,65.57
2017-12-19T05:16:55.013Z,60.00
2017-12-19T05:19:25.736Z,58.73
2017-12-19T05:21:56.404Z,58.50
2017-12-19T05:24:27.184Z,63.07
2017-12-19T05:26:57.867Z,60.90
2017-12-19T05:29:29.544Z,65.93
2017-12-19T05:32:00.304Z,68.73
2017-12-19T05:34:30.994Z,66.53
2017-12-19T05:37:01.700Z,61.53
2017-12-19T05:39:32.378Z,60.53
2017-12-19T05:42:03.035Z,65.63
2017-12-19T05:44:33.742Z,63.53
2017-12-19T05:47:04.416Z,60.00
2017-12-19T05:49:35.116Z,63.50
2017-12-19T05:52:05.825Z,71.87
2017-12-19T05:54:36.536Z,68.63
2017-12-19T05:57:07.212Z,71.80
2017-12-19T05:59:37.894Z,74.17
2017-12-19T06:02:08.580Z,69.17
2017-12-19T06:04:39.277Z,67.27
2017-12-19T06:07:10.000Z,67.63
2017-12-19T06:09:40.666Z,60.27
2017-12-19T06:12:11.355Z,54.23
2017-12-19T06:14:42.008Z,61.87
2017-12-19T06:17:12.776Z,60.90
2017-12-19T06:19:43.497Z,67.70
2017-12-19T06:22:14.181Z,59.57
2017-12-19T06:24:44.873Z,59.03
2017-12-19T06:27:15.577Z,58.70
2017-12-19T06:29:46.253Z,67.50
2017-12-19T06:32:16.966Z,62.73
2017-12-19T06:34:47.619Z,63.17
2017-12-19T06:37:18.316Z,62.07
2017-12-19T06:39:48.997Z,69.73
2017-12-19T06:42:19.712Z,62.53
2017-12-19T06:44:50.394Z,64.83
2017-12-19T06:47:21.086Z,65.30
2017-12-19T06:49:51.758Z,66.50
2017-12-19T06:52:22.477Z,66.57
2017-12-19T06:54:53.214Z,62.97
2017-12-19T06:57:23.954Z,69.73
2017-12-19T06:59:54.656Z,78.70
2017-12-19T07:02:25.339Z,67.13
2017-12-19T07:04:56.061Z,69.00
2017-12-19T07:07:26.744Z,79.60
2017-12-19T07:09:57.464Z,66.43
2017-12-19T07:12:28.168Z,75.93
2017-12-19T07:14:59.184Z,80.60
2017-12-19T07:17:29.885Z,68.13
2017-12-19T07:20:00.572Z,72.70
2017-12-19T07:22:31.293Z,71.13
2017-12-19T07:25:01.968Z,73.97
2017-12-19T07:27:32.678Z,73.47
2017-12-19T07:30:03.388Z,68.83
2017-12-19T07:32:34.085Z,67.83
2017-12-19T07:35:04.788Z,67.17
2017-12-19T07:37:35.477Z,67.70
2017-12-19T07:40:06.193Z,66.73
2017-12-19T07:42:36.925Z,62.87
2017-12-19T07:45:07.634Z,67.53
2017-12-19T07:47:38.367Z,67.73
2017-12-19T07:50:09.041Z,61.87
2017-12-19T07:52:39.752Z,60.27
2017-12-19T07:55:10.434Z,64.13
2017-12-19T07:57:41.142Z,59.97
2017-12-19T08:00:11.825Z,66.20
2017-12-19T08:02:42.554Z,60.70
2017-12-19T08:05:13.261Z,57.87
2017-12-19T08:07:43.986Z,58.47
2017-12-19T08:10:14.688Z,65.03
2017-12-19T08:12:45.397Z,59.23
2017-12-19T08:15:16.105Z,63.90
2017-12-19T08:17:46.824Z,62.60
2017-12-19T08:20:17.521Z,59.10
2017-12-19T08:22:48.241Z,64.30
2017-12-19T08:25:18.912Z,62.83
2017-12-19T08:27:49.598Z,65.70
2017-12-19T08:30:20.271Z,65.23
2017-12-19T08:32:51.048Z,59.73
2017-12-19T08:35:21.729Z,66.27
2017-12-19T08:37:52.432Z,60.97
2017-12-19T08:40:23.132Z,67.60
2017-12-19T08:42:53.813Z,68.87
2017-12-19T08:45:24.486Z,64.37
2017-12-19T08:47:55.207Z,67.10
2017-12-19T08:50:25.899Z,65.30
2017-12-19T08:52:56.592Z,68.13
2017-12-19T08:55:27.281Z,72.13
2017-12-19T08:57:58.051Z,73.47
2017-12-19T09:00:28.812Z,70.13
2017-12-19T09:02:59.495Z,73.20
2017-12-19T09:05:30.166Z,73.90
2017-12-19T09:08:00.864Z,66.17
2017-12-19T09:10:31.555Z,73.53
2017-12-19T09:13:02.310Z,71.10
2017-12-19T09:15:33.025Z,71.27
2017-12-19T09:18:03.740Z,68.83
2017-12-19T09:20:34.408Z,81.90
2017-12-19T09:23:05.128Z,73.97
2017-12-19T09:25:35.860Z,70.03
2017-12-19T09:28:06.576Z,74.23
2017-12-19T09:30:37.265Z,72.20
2017-12-19T09:33:07.933Z,70.03
2017-12-19T09:35:38.589Z,67.67
2017-12-19T09:38:09.293Z,68.90
2017-12-19T09:40:39.995Z,72.43
2017-12-19T09:43:10.709Z,68.67
2017-12-19T09:45:41.422Z,62.53
2017-12-19T09:48:12.080Z,68.47
2017-12-19T09:50:42.754Z,65.37
2017-12-19T09:53:13.469Z,65.07
2017-12-19T09:55:44.162Z,66.03
2017-12-19T09:58:14.868Z,65.03
2017-12-19T10:00:46.526Z,67.67
2017-12-19T10:03:17.207Z,66.90
2017-12-19T10:05:48.608Z,73.23
2017-12-19T10:08:19.309Z,74.20
2017-12-19T10:10:50.008Z,76.67
2017-12-19T10:13:20.689Z,84.07
2017-12-19T10:15:51.361Z,69.43
2017-12-19T10:18:22.072Z,67.13
2017-12-19T10:20:53.631Z,72.27
2017-12-19T10:23:24.369Z,75.00
2017-12-19T10:25:55.051Z,69.23
2017-12-19T10:28:25.760Z,80.23
2017-12-19T10:30:56.513Z,72.97
2017-12-19T10:33:27.226Z,75.60
2017-12-19T10:35:57.893Z,78.13
2017-12-19T10:38:28.994Z,79.33
2017-12-19T10:40:59.677Z,81.63
2017-12-19T10:43:30.352Z,75.47
2017-12-19T10:46:01.021Z,82.00
2017-12-19T10:48:31.676Z,73.80
2017-12-19T10:51:02.372Z,79.83
2017-12-19T10:53:33.051Z,70.57
2017-12-19T10:56:03.814Z,75.73
2017-12-19T10:58:34.482Z,79.23
2017-12-19T11:01:05.203Z,72.53
2017-12-19T11:03:35.932Z,74.37
2017-12-19T11:06:06.624Z,72.07
2017-12-19T11:08:37.324Z,78.03
2017-12-19T11:11:07.997Z,79.20
2017-12-19T11:13:38.656Z,69.93
2017-12-19T11:16:09.352Z,72.33
2017-12-19T11:18:40.113Z,75.33
2017-12-19T11:21:10.813Z,77.00
2017-12-19T11:23:41.560Z,69.87
2017-12-19T11:26:12.229Z,74.37
2017-12-19T11:28:42.920Z,73.47
2017-12-19T11:31:13.601Z,73.73
2017-12-19T11:33:44.319Z,77.47
2017-12-19T11:36:15.009Z,70.20
2017-12-19T11:38:45.692Z,67.87
2017-12-19T11:41:16.420Z,66.60
2017-12-19T11:43:47.120Z,66.40
2017-12-19T11:46:17.820Z,63.13
2017-12-19T11:48:49.340Z,71.07
2017-12-19T11:51:21.132Z,68.53
2017-12-19T11:53:51.799Z,62.13
2017-12-19T11:56:22.496Z,52.27
2017-12-19T11:58:53.174Z,49.17
2017-12-19T12:01:23.913Z,52.03
2017-12-19T12:03:54.588Z,54.43
2017-12-19T12:06:25.313Z,54.83
2017-12-19T12:08:55.985Z,52.97
2017-12-19T12:11:26.677Z,60.53
2017-12-19T12:13:57.338Z,57.43
2017-12-19T12:16:28.009Z,58.20
2017-12-19T12:18:58.684Z,52.13
2017-12-19T12:21:29.401Z,56.03
2017-12-19T12:24:00.093Z,60.50
2017-12-19T12:26:30.772Z,59.20
2017-12-19T12:29:01.486Z,57.80
2017-12-19T12:31:32.175Z,55.53
2017-12-19T12:34:02.860Z,50.80
2017-12-19T12:36:33.525Z,54.00
2017-12-19T12:39:04.227Z,54.20
2017-12-19T12:41:34.871Z,56.30
2017-12-19T12:44:05.573Z,47.63
2017-12-19T12:46:36.272Z,50.57
2017-12-19T12:49:06.944Z,49.47
2017-12-19T12:51:37.604Z,50.77
2017-12-19T12:54:08.293Z,58.80
2017-12-19T12:56:38.950Z,50.83
2017-12-19T12:59:09.595Z,54.00
2017-12-19T13:01:40.278Z,53.47
2017-12-19T13:04:10.948Z,47.10
2017-12-19T13:06:41.672Z,53.03
2017-12-19T13:09:12.336Z,50.90
2017-12-19T13:11:43.013Z,46.70
2017-12-19T13:14:13.684Z,40.07
2017-12-19T13:16:44.399Z,46.70
2017-12-19T13:19:15.092Z,42.10
2017-12-19T13:21:45.772Z,41.00
2017-12-19T13:24:16.454Z,44.97
2017-12-19T13:26:47.111Z,42.50
2017-12-19T13:29:17.776Z,41.83
2017-12-19T13:31:48.432Z,42.13
2017-12-19T13:34:19.113Z,45.57
2017-12-19T13:36:49.784Z,42.10
2017-12-19T13:39:20.477Z,46.03
2017-12-19T13:41:51.144Z,49.83
2017-12-19T13:44:21.804Z,44.53
2017-12-19T13:46:52.494Z,41.53
2017-12-19T13:49:23.165Z,44.23
2017-12-19T13:51:53.853Z,46.73
2017-12-19T13:54:24.571Z,47.13
2017-12-19T13:56:55.196Z,47.50
2017-12-19T13:59:25.886Z,43.67
2017-12-19T14:01:56.569Z,45.13
2017-12-19T14:04:27.242Z,48.63
2017-12-19T14:06:57.898Z,47.03
2017-12-19T14:09:28.597Z,51.20
2017-12-19T14:11:59.263Z,47.23
2017-12-19T14:14:29.970Z,48.20
2017-12-19T14:17:00.645Z,48.77
2017-12-19T14:19:31.318Z,49.00
2017-12-19T14:22:02.014Z,53.73
2017-12-19T14:24:32.716Z,50.27
2017-12-19T14:27:03.408Z,51.10
2017-12-19T14:29:34.077Z,51.10
2017-12-19T14:32:04.752Z,50.77
2017-12-19T14:34:35.452Z,52.33
2017-12-19T14:37:06.125Z,54.10
2017-12-19T14:39:37.165Z,55.83
2017-12-19T14:42:07.843Z,55.33
2017-12-19T14:44:38.516Z,55.40
2017-12-19T14:47:09.236Z,57.00
2017-12-19T14:49:39.917Z,59.57
2017-12-19T14:52:10.605Z,56.03
2017-12-19T14:54:41.325Z,55.33
2017-12-19T14:57:12.038Z,54.80
2017-12-19T14:59:42.693Z,59.57
2017-12-19T15:02:13.434Z,57.87
2017-12-19T15:04:44.136Z,53.60
2017-12-19T15:07:14.808Z,56.50
2017-12-19T15:09:45.552Z,56.00
2017-12-19T15:12:16.249Z,56.13
2017-12-19T15:14:47.241Z,60.03
2017-12-19T15:17:17.906Z,54.00
2017-12-19T15:19:48.585Z,58.37
2017-12-19T15:22:19.295Z,63.37
2017-12-19T15:24:49.961Z,57.07
2017-12-19T15:27:20.641Z,56.47
2017-12-19T15:29:51.332Z,61.40
2017-12-19T15:32:21.999Z,57.63
2017-12-19T15:34:52.647Z,57.33
2017-12-19T15:37:24.005Z,51.03
2017-12-19T15:39:54.775Z,51.30
2017-12-19T15:42:25.419Z,54.27
2017-12-19T15:44:56.125Z,53.10
2017-12-19T15:47:26.841Z,52.23
2017-12-19T15:49:57.525Z,53.63
2017-12-19T15:52:28.214Z,52.83
2017-12-19T15:54:58.972Z,49.70
2017-12-19T15:57:29.696Z,51.93
2017-12-19T16:00:00.395Z,54.33
2017-12-19T16:02:31.104Z,47.20
2017-12-19T16:05:01.816Z,49.13
2017-12-19T16:07:32.539Z,43.90
2017-12-19T16:10:03.216Z,45.77
2017-12-19T16:12:33.910Z,47.23
2017-12-19T16:15:04.596Z,44.13
2017-12-19T16:17:35.289Z,43.70
2017-12-19T16:20:05.975Z,43.47
2017-12-19T16:22:37.233Z,44.10
2017-12-19T16:25:07.907Z,43.63
2017-12-19T16:27:38.589Z,46.70
2017-12-19T16:30:09.289Z,43.23
2017-12-19T16:32:39.983Z,46.00
2017-12-19T16:35:10.664Z,42.97
2017-12-19T16:37:41.340Z,46.63
2017-12-19T16:40:12.065Z,41.17
2017-12-19T16:42:42.755Z,45.60
2017-12-19T16:45:13.467Z,42.53
2017-12-19T16:47:44.153Z,42.83
2017-12-19T16:50:14.845Z,44.47
2017-12-19T16:52:45.523Z,42.97
2017-12-19T16:55:16.214Z,48.17
2017-12-19T16:57:46.953Z,46.60
2017-12-19T17:00:17.621Z,47.93
2017-12-19T17:02:48.324Z,45.43
2017-12-19T17:05:19.002Z,48.03
2017-12-19T17:07:49.665Z,44.53
2017-12-19T17:10:21.344Z,48.43
2017-12-19T17:12:52.009Z,48.40
2017-12-19T17:15:22.760Z,50.27
2017-12-19T17:17:53.461Z,51.73
2017-12-19T17:20:24.153Z,49.40
2017-12-19T17:22:55.151Z,48.80
2017-12-19T17:25:25.837Z,49.50
2017-12-19T17:27:56.573Z,51.50
2017-12-19T17:30:27.514Z,53.77
2017-12-19T17:32:58.226Z,53.47
2017-12-19T17:35:28.969Z,50.63
2017-12-19T17:37:59.653Z,52.13
2017-12-19T17:40:30.440Z,59.90
2017-12-19T17:43:01.145Z,50.53
2017-12-19T17:45:31.845Z,53.70
2017-12-19T17:48:02.533Z,51.83
2017-12-19T17:50:33.211Z,55.90
2017-12-19T17:53:03.921Z,55.37
2017-12-19T17:55:34.584Z,58.33
2017-12-19T17:58:05.297Z,56.40
2017-12-19T18:00:36.003Z,58.10
2017-12-19T18:03:06.722Z,54.07
2017-12-19T18:05:37.441Z,55.23
2017-12-19T18:08:08.172Z,54.57
2017-12-19T18:10:38.884Z,51.33
2017-12-19T18:13:09.533Z,51.13
2017-12-19T18:15:40.248Z,52.83
2017-12-19T18:18:10.910Z,55.17
2017-12-19T18:20:41.580Z,55.67
2017-12-19T18:23:13.241Z,58.87
2017-12-19T18:25:43.953Z,58.43
2017-12-19T18:28:14.677Z,60.13
2017-12-19T18:30:45.385Z,60.83
2017-12-19T18:33:16.061Z,53.43
2017-12-19T18:35:46.770Z,57.07
2017-12-19T18:38:17.459Z,57.43
2017-12-19T18:40:48.149Z,52.50
2017-12-19T18:43:18.873Z,60.90
2017-12-19T18:45:49.569Z,57.30
2017-12-19T18:48:20.245Z,58.40
2017-12-19T18:50:50.960Z,58.53
2017-12-19T18:53:21.654Z,60.97
2017-12-19T18:55:52.365Z,57.23
2017-12-19T18:58:23.075Z,57.67
2017-12-19T19:00:53.764Z,58.83
2017-12-19T19:03:24.770Z,53.17
2017-12-19T19:05:55.482Z,51.40
2017-12-19T19:08:26.181Z,57.50
2017-12-19T19:10:57.675Z,53.23
2017-12-19T19:13:28.375Z,54.33
2017-12-19T19:15:59.093Z,60.60
2017-12-19T19:18:29.777Z,52.03
2017-12-19T19:21:00.485Z,53.17
2017-12-19T19:23:31.156Z,56.40
2017-12-19T19:26:01.870Z,53.00
2017-12-19T19:28:32.537Z,59.07
2017-12-19T19:31:03.244Z,57.20
2017-12-19T19:33:33.970Z,61.50
2017-12-19T19:36:04.671Z,54.63
2017-12-19T19:38:35.368Z,57.53
2017-12-19T19:41:06.040Z,54.27
2017-12-19T19:43:36.809Z,55.50
2017-12-19T19:46:07.520Z,56.37
2017-12-19T19:48:38.248Z,52.33
2017-12-19T19:51:09.642Z,54.77
2017-12-19T19:53:40.406Z,58.90
2017-12-19T19:56:12.894Z,53.63
2017-12-19T19:58:43.601Z,59.03
2017-12-19T20:01:15.282Z,61.47
2017-12-19T20:03:46.269Z,55.40
2017-12-19T20:06:17.072Z,56.97
2017-12-19T20:08:47.748Z,67.67
2017-12-19T20:11:18.465Z,65.47
2017-12-19T20:13:49.186Z,70.63
2017-12-19T20:16:19.901Z,67.97
2017-12-19T20:18:50.582Z,74.70
2017-12-19T20:21:21.300Z,86.70
2017-12-19T20:23:52.009Z,81.90
2017-12-19T20:26:22.765Z,78.63
2017-12-19T20:28:53.515Z,90.33
2017-12-19T20:31:24.565Z,90.40
2017-12-19T20:33:55.274Z,102.03
2017-12-19T20:36:26.906Z,105.00
2017-12-19T20:38:58.086Z,102.67
2017-12-19T20:41:28.764Z,87.03
2017-12-19T20:43:59.437Z,83.30
2017-12-19T20:46:31.096Z,75.23
2017-12-19T20:49:02.143Z,74.80
2017-12-19T20:51:32.833Z,71.93
2017-12-19T20:54:03.660Z,74.13
2017-12-19T20:56:34.329Z,83.73
2017-12-19T20:59:09.991Z,79.27
2017-12-19T21:01:41.364Z,78.47
2017-12-19T21:04:12.745Z,75.97
2017-12-19T21:06:43.431Z,80.93
2017-12-19T21:09:14.151Z,82.03
2017-12-19T21:11:44.841Z,94.43
2017-12-19T21:14:15.535Z,95.03
2017-12-19T21:16:46.257Z,86.53
2017-12-19T21:19:16.936Z,92.03
2017-12-19T21:21:47.670Z,95.83
2017-12-19T21:24:18.372Z,97.73
2017-12-19T21:26:49.385Z,113.37
2017-12-19T21:29:20.113Z,112.97
2017-12-19T21:31:50.816Z,111.30
2017-12-19T21:34:21.483Z,115.60
2017-12-19T21:36:52.172Z,124.87
2017-12-19T21:39:22.909Z,115.37
2017-12-19T21:41:53.597Z,101.33
2017-12-19T21:44:24.310Z,104.20
2017-12-19T21:46:54.991Z,105.27
2017-12-19T21:49:25.687Z,92.87
2017-12-19T21:51:56.993Z,96.30
2017-12-19T21:54:27.688Z,90.47
2017-12-19T21:56:58.370Z,85.47
2017-12-19T21:59:29.072Z,97.67
2017-12-19T22:01:59.813Z,93.27
2017-12-19T22:04:30.514Z,115.47
2017-12-19T22:07:01.376Z,137.67
2017-12-19T22:09:32.074Z,109.63
2017-12-19T22:12:03.692Z,107.93
2017-12-19T22:14:34.352Z,130.27
2017-12-19T22:17:05.043Z,119.27
2017-12-19T22:19:35.763Z,173.77
2017-12-19T22:22:07.312Z,148.03
2017-12-19T22:24:37.994Z,225.27
2017-12-19T22:27:08.666Z,145.00
2017-12-19T22:29:40.091Z,111.93
2017-12-19T22:32:11.190Z,114.53
2017-12-19T22:34:41.890Z,109.37
2017-12-19T22:37:12.613Z,151.47
2017-12-19T22:39:43.373Z,120.63
2017-12-19T22:42:14.071Z,123.07
2017-12-19T22:44:44.786Z,153.13
2017-12-19T22:47:15.545Z,147.43
2017-12-19T22:49:47.393Z,116.07
2017-12-19T22:52:18.094Z,109.17
2017-12-19T22:54:48.804Z,141.20
2017-12-19T22:57:19.515Z,121.03
2017-12-19T22:59:50.212Z,147.43
2017-12-19T23:02:20.935Z,118.90
2017-12-19T23:04:51.646Z,141.83
2017-12-19T23:07:22.357Z,130.87
2017-12-19T23:09:53.040Z,105.50
2017-12-19T23:12:23.741Z,110.43
2017-12-19T23:14:54.433Z,140.00
2017-12-19T23:17:25.133Z,140.47
2017-12-19T23:19:55.834Z,109.40
2017-12-19T23:22:26.552Z,129.37
2017-12-19T23:24:57.305Z,136.10
2017-12-19T23:27:28.029Z,132.73
2017-12-19T23:29:58.755Z,116.43
2017-12-19T23:32:29.493Z,150.87
2017-12-19T23:35:00.161Z,191.00
2017-12-19T23:37:30.903Z,180.97
2017-12-19T23:40:01.577Z,100.97
2017-12-19T23:42:32.303Z,136.40
2017-12-19T23:45:03.002Z,204.57
2017-12-19T23:47:33.683Z,116.37
2017-12-19T23:50:05.204Z,216.93
2017-12-19T23:52:35.870Z,291.07
2017-12-19T23:55:06.557Z,223.83
2017-12-19T23:57:37.235Z,301.67
